Time;durP1;ratioP1;P1;durP2;ratioP2;P2;SDS_P1;SDS_P2;PMS_P1;PMS_P2;Temp;Humidity;BMP_temperature;BMP_pressure;BME280_temperature;BME280_humidity;BME280_pressure;Samples;Min_cycle;Max_cycle;Signal;HPM_P1;HPM_P2
2023/02/28 00:01:25;;;;;;;18.85;11.40;;;;;;;8.66;82.15;99916.66;5115263;27;20023;-73
2023/02/28 00:03:50;;;;;;;22.27;11.32;;;;;;;8.65;81.26;99918.63;5112467;28;20029;-73
2023/02/28 00:06:17;;;;;;;19.40;10.95;;;;;;;8.63;81.12;99906.13;5110670;28;20454;-73
2023/02/28 00:08:42;;;;;;;20.73;10.43;;;;;;;8.84;80.09;99901.75;5112391;28;20031;-73
2023/02/28 00:11:10;;;;;;;24.10;12.18;;;;;;;8.93;79.39;99890.69;5112140;28;20532;-73
2023/02/28 00:13:39;;;;;;;20.90;11.52;;;;;;;8.91;79.62;99909.69;5112535;27;20020;-73
2023/02/28 00:16:08;;;;;;;22.23;11.32;;;;;;;9.11;78.69;99915.94;5109942;28;20031;-73
2023/02/28 00:18:34;;;;;;;22.52;10.30;;;;;;;9.18;77.77;99913.56;5110841;28;20122;-73
2023/02/28 00:20:59;;;;;;;23.33;10.93;;;;;;;9.18;77.65;99913.56;5110133;28;20106;-73
2023/02/28 00:23:26;;;;;;;17.90;9.73;;;;;;;9.21;77.57;99918.50;5111672;28;20398;-72
2023/02/28 00:25:52;;;;;;;19.80;10.43;;;;;;;9.08;78.06;99919.38;5112384;28;20489;-73
2023/02/28 00:28:18;;;;;;;19.80;9.65;;;;;;;9.17;77.91;99917.50;5110714;27;20414;-73
2023/02/28 00:30:44;;;;;;;24.48;10.45;;;;;;;9.09;77.98;99923.81;5111840;28;20132;-73
2023/02/28 00:33:10;;;;;;;24.90;10.77;;;;;;;9.17;77.30;99923.06;5109803;28;20132;-73
2023/02/28 00:35:35;;;;;;;17.58;9.93;;;;;;;9.11;77.15;99930.72;5110532;28;20110;-73
2023/02/28 00:38:01;;;;;;;16.80;9.15;;;;;;;8.88;78.58;99920.66;5118830;27;20510;-73
2023/02/28 00:40:27;;;;;;;16.10;9.25;;;;;;;8.85;78.10;99928.50;5119611;27;20059;-73
2023/02/28 00:42:52;;;;;;;19.40;9.93;;;;;;;8.97;77.76;99935.53;5110495;28;20031;-73
2023/02/28 00:45:17;;;;;;;16.55;10.07;;;;;;;8.75;78.41;99925.94;5111687;28;20051;-72
2023/02/28 00:47:43;;;;;;;17.52;10.70;;;;;;;8.61;79.62;99913.97;5111685;28;20023;-72
2023/02/28 00:50:09;;;;;;;14.55;9.85;;;;;;;8.74;79.41;99924.28;5109406;28;20512;-73
2023/02/28 00:52:35;;;;;;;17.83;9.50;;;;;;;8.71;79.26;99924.94;5109323;28;20024;-73
2023/02/28 00:55:00;;;;;;;16.63;8.73;;;;;;;8.62;79.85;99910.06;5111642;28;20031;-73
2023/02/28 00:57:26;;;;;;;21.52;9.52;;;;;;;8.63;79.30;99915.31;5111605;28;20027;-73
2023/02/28 00:59:53;;;;;;;14.77;8.82;;;;;;;8.47;80.57;99920.34;5111481;28;20027;-73
2023/02/28 01:02:20;;;;;;;18.42;9.57;;;;;;;8.50;80.59;99913.31;5111507;28;20022;-72
2023/02/28 01:04:46;;;;;;;13.65;7.82;;;;;;;8.59;79.87;99907.91;5111377;28;20450;-72
2023/02/28 01:07:11;;;;;;;14.60;8.55;;;;;;;8.51;80.53;99920.59;5109767;28;20036;-73
2023/02/28 01:09:37;;;;;;;14.90;8.35;;;;;;;8.58;80.26;99926.56;5111475;28;20020;-72
2023/02/28 01:12:03;;;;;;;14.75;7.85;;;;;;;8.74;79.60;99938.25;5111360;28;20031;-73
2023/02/28 01:14:28;;;;;;;18.45;7.60;;;;;;;8.96;78.68;99933.88;5119816;28;20470;-73
2023/02/28 01:16:54;;;;;;;14.82;7.38;;;;;;;8.95;78.64;99915.50;5118133;27;20102;-73
2023/02/28 01:19:19;;;;;;;14.43;7.55;;;;;;;9.04;78.46;99927.53;5130396;27;20640;-73
2023/02/28 01:21:45;;;;;;;15.73;8.25;;;;;;;9.19;77.14;99928.34;5114180;28;20474;-73
2023/02/28 01:24:10;;;;;;;15.13;7.70;;;;;;;9.21;76.83;99931.66;5124528;27;20035;-73
2023/02/28 01:26:35;;;;;;;13.70;7.10;;;;;;;9.22;77.35;99933.28;5122783;27;20028;-73
2023/02/28 01:29:01;;;;;;;14.13;7.25;;;;;;;9.26;76.90;99928.72;5114210;27;20035;-73
2023/02/28 01:31:27;;;;;;;17.50;8.43;;;;;;;9.46;76.08;99932.19;5114516;27;20035;-73
2023/02/28 01:33:52;;;;;;;12.07;7.72;;;;;;;9.62;75.35;99930.66;5114446;27;20110;-73
2023/02/28 01:36:23;;;;;;;17.83;9.15;;;;;;;9.69;74.67;99933.84;5114037;28;20019;-73
2023/02/28 01:38:49;;;;;;;15.55;8.98;;;;;;;9.78;74.28;99927.50;5114343;28;20055;-73
2023/02/28 01:41:19;;;;;;;14.05;9.10;;;;;;;9.83;73.54;99941.31;5116213;27;20508;-73
2023/02/28 01:43:44;;;;;;;19.40;10.35;;;;;;;9.90;73.37;99944.50;5119934;27;20027;-73
2023/02/28 01:46:10;;;;;;;15.50;9.68;;;;;;;9.84;73.11;99942.97;5135601;27;20099;-73
2023/02/28 01:48:50;;;;;;;14.48;9.32;;;;;;;9.86;73.40;99951.84;5131270;27;20106;-73
2023/02/28 01:51:25;;;;;;;15.07;9.77;;;;;;;9.91;72.78;99943.34;5114011;28;20023;-74
2023/02/28 01:53:59;;;;;;;17.35;8.40;;;;;;;10.04;72.49;99938.00;5114391;27;20409;-73
2023/02/28 01:56:29;;;;;;;15.05;9.07;;;;;;;10.07;72.32;99946.56;5114341;28;20027;-73
2023/02/28 01:58:55;;;;;;;18.38;9.57;;;;;;;10.17;71.40;99939.03;5113571;27;20031;-73
2023/02/28 02:01:23;;;;;;;16.77;7.93;;;;;;;10.08;72.02;99947.38;5113321;28;20028;-73
2023/02/28 02:03:55;;;;;;;16.55;7.22;;;;;;;10.13;71.37;99950.03;5119068;27;20027;-73
2023/02/28 02:06:22;;;;;;;14.98;7.68;;;;;;;10.17;70.86;99944.63;5125166;27;20100;-73
2023/02/28 02:08:47;;;;;;;13.73;7.28;;;;;;;10.20;70.64;99966.38;5114662;27;20168;-73
2023/02/28 02:11:17;;;;;;;14.52;7.45;;;;;;;10.09;70.94;99961.06;5113279;28;20035;-73
2023/02/28 02:13:55;;;;;;;15.00;7.43;;;;;;;10.05;71.14;99964.81;5115268;27;20406;-73
2023/02/28 02:16:32;;;;;;;19.13;7.25;;;;;;;10.09;70.79;99971.41;5114573;28;20047;-73
2023/02/28 02:19:16;;;;;;;12.85;7.82;;;;;;;9.73;71.75;99977.88;5114521;28;20080;-73
2023/02/28 02:21:47;;;;;;;16.25;7.47;;;;;;;9.71;72.13;99977.38;5113259;28;20533;-73
2023/02/28 02:24:42;;;;;;;14.50;6.72;;;;;;;9.39;73.41;99983.69;5115149;27;20110;-73
2023/02/28 02:27:20;;;;;;;17.70;7.90;;;;;;;9.31;74.26;99992.81;5132217;27;20031;-73
2023/02/28 02:29:54;;;;;;;12.18;6.97;;;;;;;9.28;74.92;100004.59;5121061;27;20032;-73
2023/02/28 02:32:50;;;;;;;18.83;7.45;;;;;;;9.11;75.33;100006.09;5114131;28;20108;-73
2023/02/28 02:35:27;;;;;;;19.67;8.43;;;;;;;9.02;77.00;100005.16;5113341;27;20494;-73
2023/02/28 02:38:17;;;;;;;17.50;8.00;;;;;;;8.95;76.87;100010.34;5114042;28;20451;-72
2023/02/28 02:41:15;;;;;;;27.00;9.07;;;;;;;8.81;77.60;100013.97;5112709;28;20024;-73
2023/02/28 02:43:51;;;;;;;18.35;8.50;;;;;;;8.75;78.22;100017.16;5117563;27;20080;-73
2023/02/28 02:46:50;;;;;;;26.88;10.65;;;;;;;8.62;78.46;100018.81;5134537;27;20534;-73
2023/02/28 02:49:28;;;;;;;27.48;10.43;;;;;;;8.75;78.13;100009.63;5071134;28;20085;-73
2023/02/28 02:51:56;;;;;;;23.05;10.25;;;;;;;8.70;78.31;100016.13;5113298;28;20050;-73
2023/02/28 02:54:28;;;;;;;28.88;10.60;;;;;;;8.68;77.64;100012.81;5112561;27;20055;-73
2023/02/28 02:56:57;;;;;;;18.65;10.57;;;;;;;8.72;78.08;100021.41;5121530;27;20028;-73
2023/02/28 02:59:24;;;;;;;22.83;11.90;;;;;;;8.63;78.98;100028.81;5113801;28;20054;-73
2023/02/28 03:01:55;;;;;;;23.30;10.77;;;;;;;8.60;78.70;100024.69;5113460;28;20401;-73
2023/02/28 03:04:22;;;;;;;;;;;;;;;8.56;78.78;100043.97;5119418;27;20042;-73
2023/02/28 03:06:54;;;;;;;26.90;10.77;;;;;;;8.42;79.41;100041.16;5109127;27;20010;-73
2023/02/28 03:09:21;;;;;;;25.05;11.93;;;;;;;8.40;80.27;100040.66;5113560;28;20023;-73
2023/02/28 03:11:48;;;;;;;27.88;12.52;;;;;;;8.38;80.24;100050.44;5111969;28;20067;-73
2023/02/28 03:15:04;;;;;;;30.27;10.93;;;;;;;8.34;80.63;100049.41;5113864;28;20028;-73
2023/02/28 03:18:07;;;;;;;35.13;11.75;;;;;;;8.37;80.88;100048.78;5050736;28;20083;-73
2023/02/28 03:20:45;;;;;;;31.58;12.18;;;;;;;8.36;80.50;100061.06;5093010;28;20078;-73
2023/02/28 03:23:23;;;;;;;36.17;11.35;;;;;;;8.34;81.57;100053.00;5113198;28;20035;-73
2023/02/28 03:25:48;;;;;;;24.45;12.25;;;;;;;8.39;81.66;100060.44;5127245;27;20106;-73
2023/02/28 03:28:23;;;;;;;30.33;12.65;;;;;;;8.37;81.73;100055.16;5132353;27;20476;-73
2023/02/28 03:31:03;;;;;;;26.88;12.77;;;;;;;8.37;81.65;100054.34;5133131;27;20022;-73
2023/02/28 03:34:00;;;;;;;32.90;13.75;;;;;;;8.32;83.32;100052.47;5133260;27;20080;-73
2023/02/28 03:36:30;;;;;;;49.33;15.73;;;;;;;8.39;84.12;100055.72;5090279;27;20042;-73
2023/02/28 03:39:03;;;;;;;30.95;15.45;;;;;;;8.24;86.03;100065.16;5112873;28;20020;-73
2023/02/28 03:41:38;;;;;;;33.08;14.32;;;;;;;8.39;87.19;100057.66;5110604;28;20034;-73
2023/02/28 03:44:15;;;;;;;30.42;16.88;;;;;;;8.34;87.39;100066.94;5112782;27;20517;-73
2023/02/28 03:46:47;;;;;;;32.13;15.98;;;;;;;8.33;89.01;100070.06;5112718;27;20106;-73
2023/02/28 03:49:23;;;;;;;31.15;16.27;;;;;;;8.31;90.45;100083.44;5111782;28;20058;-73
2023/02/28 03:51:51;;;;;;;35.72;16.15;;;;;;;8.21;92.14;100081.66;5112719;28;20090;-73
2023/02/28 03:54:22;;;;;;;29.52;15.55;;;;;;;8.25;92.34;100089.13;5119429;27;20087;-73
2023/02/28 03:57:05;;;;;;;33.42;15.90;;;;;;;8.25;92.69;100079.91;5132938;27;20027;-73
2023/02/28 03:59:57;;;;;;;32.83;16.17;;;;;;;8.27;93.31;100084.06;5133104;27;20513;-72
2023/02/28 04:02:23;;;;;;;26.02;15.60;;;;;;;8.25;93.29;100077.97;5124555;27;20046;-73
2023/02/28 04:04:48;;;;;;;33.47;16.13;;;;;;;8.27;93.07;100080.47;5125616;27;20034;-73
2023/02/28 04:07:14;;;;;;;24.88;15.25;;;;;;;8.21;93.03;100081.66;5132549;27;20023;-73
2023/02/28 04:09:40;;;;;;;32.65;17.05;;;;;;;8.20;93.58;100091.97;5131619;27;20394;-73
2023/02/28 04:12:05;;;;;;;40.17;16.27;;;;;;;8.21;93.76;100102.00;5106908;27;20174;-72
2023/02/28 04:14:31;;;;;;;37.28;17.27;;;;;;;8.27;93.71;100099.97;5106075;28;20031;-73
2023/02/28 04:16:56;;;;;;;33.88;16.30;;;;;;;8.20;93.81;100108.69;5106346;28;20023;-73
2023/02/28 04:19:22;;;;;;;29.70;16.13;;;;;;;8.19;94.49;100109.81;5108644;28;20039;-73
2023/02/28 04:21:52;;;;;;;33.83;16.08;;;;;;;8.22;94.41;100120.38;5106089;28;20020;-73
2023/02/28 04:24:19;;;;;;;;;;;;;;;8.21;94.64;100117.88;5111111;27;20030;-73
2023/02/28 04:26:47;;;;;;;30.65;15.07;;;;;;;8.12;94.61;100114.97;5106313;27;20305;-73
2023/02/28 04:29:17;;;;;;;32.67;16.75;;;;;;;8.13;94.88;100116.63;5103251;27;20054;-73
2023/02/28 04:31:42;;;;;;;;;;;;;;;8.12;94.60;100115.78;5111266;28;20064;-73
2023/02/28 04:34:08;;;;;;;33.28;15.55;;;;;;;8.10;94.35;100111.66;5114345;27;20417;-73
2023/02/28 04:36:33;;;;;;;27.67;13.65;;;;;;;7.95;94.83;100102.38;5107203;28;20103;-72
2023/02/28 04:38:59;;;;;;;33.85;15.60;;;;;;;7.95;95.29;100102.38;5098798;28;20051;-73
2023/02/28 04:41:24;;;;;;;31.35;16.20;;;;;;;7.96;94.80;100112.44;5110647;28;20024;-73
2023/02/28 04:43:53;;;;;;;37.13;15.65;;;;;;;7.95;95.02;100099.59;5112027;28;20024;-72
2023/02/28 04:46:20;;;;;;;27.58;14.15;;;;;;;7.95;94.64;100102.38;5121221;27;20033;-73
2023/02/28 04:48:46;;;;;;;31.67;14.90;;;;;;;7.90;95.05;100112.78;5130994;27;20015;-73
2023/02/28 04:51:13;;;;;;;28.50;14.05;;;;;;;7.75;95.40;100117.44;5132220;27;20034;-73
2023/02/28 04:53:41;;;;;;;27.10;15.02;;;;;;;7.73;95.45;100116.94;5129666;27;20040;-73
2023/02/28 04:56:07;;;;;;;34.40;17.00;;;;;;;7.71;95.37;100120.00;5110305;28;20062;-73
2023/02/28 04:58:33;;;;;;;33.83;14.80;;;;;;;7.75;94.57;100128.59;5110379;28;20058;-73
2023/02/28 05:01:04;;;;;;;31.33;16.08;;;;;;;7.73;94.15;100114.97;5109207;28;20112;-73
2023/02/28 05:03:29;;;;;;;35.80;16.30;;;;;;;7.87;94.08;100119.81;5111383;28;20050;-73
2023/02/28 05:05:54;;;;;;;24.55;14.18;;;;;;;7.76;93.66;100119.09;5122477;28;20470;-76
2023/02/28 05:08:20;;;;;;;29.23;16.95;;;;;;;7.86;93.89;100132.06;5111593;28;20046;-76
2023/02/28 05:10:45;;;;;;;33.05;16.30;;;;;;;7.76;93.49;100135.00;5110101;28;20062;-74
2023/02/28 05:13:13;;;;;;;26.10;14.82;;;;;;;7.78;93.56;100139.13;5111432;28;20052;-75
2023/02/28 05:15:38;;;;;;;28.77;13.63;;;;;;;7.63;93.99;100140.19;5115562;28;20127;-72
2023/02/28 05:18:04;;;;;;;27.80;14.13;;;;;;;7.62;94.58;100146.88;5115774;28;20031;-72
2023/02/28 05:20:29;;;;;;;31.88;16.60;;;;;;;7.57;94.76;100152.50;5110256;28;20027;-73
2023/02/28 05:23:03;;;;;;;29.35;14.43;;;;;;;7.59;95.13;100153.03;5110305;28;20465;-73
2023/02/28 05:25:28;;;;;;;29.70;15.05;;;;;;;7.58;94.45;100155.00;5120982;28;20024;-72
2023/02/28 05:27:54;;;;;;;31.02;15.70;;;;;;;7.64;95.03;100160.47;5109614;28;20028;-72
2023/02/28 05:30:19;;;;;;;32.58;16.48;;;;;;;7.65;94.45;100165.75;5104691;28;20024;-72
2023/02/28 05:32:50;;;;;;;24.88;15.52;;;;;;;7.61;94.45;100170.28;5111364;28;20020;-73
2023/02/28 05:35:15;;;;;;;33.85;18.73;;;;;;;7.56;94.85;100165.59;5119795;28;20092;-74
2023/02/28 05:37:41;;;;;;;34.38;17.30;;;;;;;7.67;94.49;100168.25;5110019;28;20028;-76
2023/02/28 05:40:10;;;;;;;29.92;16.33;;;;;;;7.71;94.33;100177.66;5111432;28;20031;-74
2023/02/28 05:42:36;;;;;;;31.75;18.83;;;;;;;7.70;94.45;100165.69;5111267;28;20153;-74
2023/02/28 05:45:01;;;;;;;33.40;18.02;;;;;;;7.69;94.04;100169.59;5113132;28;20040;-75
2023/02/28 05:47:27;;;;;;;28.65;17.20;;;;;;;7.79;93.65;100178.94;5132007;28;20035;-75
2023/02/28 05:49:52;;;;;;;38.88;19.60;;;;;;;7.77;93.58;100181.22;5131699;27;20027;-73
2023/02/28 05:52:18;;;;;;;36.08;18.73;;;;;;;7.74;93.79;100174.28;5109258;27;20073;-72
2023/02/28 05:54:43;;;;;;;33.85;16.05;;;;;;;7.82;93.07;100178.34;5113261;28;20100;-73
2023/02/28 05:57:08;;;;;;;28.63;15.50;;;;;;;7.89;92.98;100187.19;5129611;28;20027;-72
2023/02/28 05:59:34;;;;;;;32.95;16.17;;;;;;;7.90;92.83;100188.81;5131539;27;20390;-72
2023/02/28 06:01:59;;;;;;;29.13;15.90;;;;;;;8.04;92.04;100202.84;5128468;27;20398;-72
2023/02/28 06:04:25;;;;;;;32.38;17.63;;;;;;;8.11;92.05;100205.28;5123272;27;20023;-72
2023/02/28 06:06:51;;;;;;;31.23;19.02;;;;;;;8.10;91.39;100206.41;5130173;27;20079;-73
2023/02/28 06:09:18;;;;;;;32.00;16.52;;;;;;;8.15;91.06;100211.88;5114585;28;20059;-71
2023/02/28 06:11:44;;;;;;;27.58;15.98;;;;;;;8.03;91.82;100200.34;5113593;28;20050;-74
2023/02/28 06:14:17;;;;;;;29.25;16.15;;;;;;;8.07;90.96;100207.81;5123937;27;20027;-72
2023/02/28 06:16:43;;;;;;;36.83;18.23;;;;;;;7.99;91.04;100211.28;5118099;27;20020;-73
2023/02/28 06:19:09;;;;;;;36.08;17.67;;;;;;;8.01;91.66;100223.78;5112364;28;20461;-73
2023/02/28 06:21:36;;;;;;;35.47;19.00;;;;;;;8.00;91.19;100213.78;5111818;27;20503;-73
2023/02/28 06:24:02;;;;;;;33.53;19.35;;;;;;;8.03;90.71;100217.06;5119897;27;20064;-71
2023/02/28 06:26:28;;;;;;;40.72;21.88;;;;;;;8.05;91.22;100217.59;5120388;27;20031;-73
2023/02/28 06:28:54;;;;;;;31.98;17.58;;;;;;;8.04;91.03;100222.38;5113234;28;20027;-73
2023/02/28 06:31:20;;;;;;;43.97;19.58;;;;;;;8.06;91.12;100231.25;5112357;27;20019;-74
2023/02/28 06:33:46;;;;;;;31.90;19.75;;;;;;;8.08;91.39;100230.94;5120597;27;20027;-72
2023/02/28 06:36:13;;;;;;;46.42;20.25;;;;;;;8.08;90.92;100237.34;5127201;27;20023;-71
2023/02/28 06:38:40;;;;;;;32.92;18.23;;;;;;;8.20;91.03;100227.72;5113902;28;20028;-71
2023/02/28 06:41:06;;;;;;;33.60;19.08;;;;;;;8.17;90.28;100231.09;5113075;27;20058;-73
2023/02/28 06:43:37;;;;;;;50.25;20.52;;;;;;;8.12;90.88;100226.44;5114945;27;20176;-77
2023/02/28 06:46:06;;;;;;;38.20;19.90;;;;;;;8.11;90.25;100224.78;5123806;27;20079;-72
2023/02/28 06:48:32;;;;;;;42.65;21.92;;;;;;;8.21;89.85;100230.22;5107649;27;20031;-74
2023/02/28 06:51:10;;;;;;;152.75;90.57;;;;;;;8.08;90.49;100231.78;5111321;27;20410;-78
2023/02/28 06:53:36;;;;;;;187.98;121.40;;;;;;;8.15;91.31;100242.53;5113994;27;20019;-74
2023/02/28 06:56:07;;;;;;;118.43;69.85;;;;;;;8.23;90.72;100239.09;5106051;27;20020;-74
2023/02/28 06:58:33;;;;;;;54.63;33.75;;;;;;;8.22;89.72;100245.81;5109467;27;20030;-72
2023/02/28 07:00:58;;;;;;;67.95;40.75;;;;;;;8.25;90.47;100250.75;5110795;27;20050;-71
2023/02/28 07:03:24;;;;;;;56.80;30.05;;;;;;;8.31;90.28;100247.88;5111625;27;20031;-72
2023/02/28 07:05:50;;;;;;;54.10;31.95;;;;;;;8.29;89.96;100245.44;5106913;28;20027;-73
2023/02/28 07:08:16;;;;;;;42.92;22.63;;;;;;;8.33;89.52;100248.44;5109001;28;20035;-74
2023/02/28 07:10:42;;;;;;;45.38;25.60;;;;;;;8.43;89.27;100245.47;5107770;28;20052;-73
2023/02/28 07:13:08;;;;;;;43.50;21.73;;;;;;;8.54;89.07;100252.59;5110957;27;20112;-72
2023/02/28 07:15:34;;;;;;;36.63;20.17;;;;;;;8.55;88.65;100245.88;5104341;28;20034;-73
2023/02/28 07:18:00;;;;;;;43.25;22.23;;;;;;;8.69;88.68;100245.16;5109712;27;20029;-74
2023/02/28 07:20:26;;;;;;;47.08;23.20;;;;;;;8.63;87.81;100251.91;5098928;28;20421;-72
2023/02/28 07:22:56;;;;;;;47.75;20.65;;;;;;;8.61;87.90;100243.03;5108905;27;20036;-77
2023/02/28 07:25:28;;;;;;;44.53;23.33;;;;;;;8.61;88.49;100248.63;5105701;27;20035;-73
2023/02/28 07:27:55;;;;;;;48.03;23.88;;;;;;;8.65;88.07;100246.88;5104056;28;20421;-73
2023/02/28 07:30:21;;;;;;;42.08;21.65;;;;;;;8.78;87.41;100248.88;5111575;27;20474;-73
2023/02/28 07:32:49;;;;;;;44.75;24.30;;;;;;;8.73;87.62;100248.97;5108088;28;20023;-72
2023/02/28 07:35:15;;;;;;;47.30;22.58;;;;;;;8.79;87.20;100252.50;5107237;28;20024;-73
2023/02/28 07:37:41;;;;;;;43.63;20.58;;;;;;;8.66;87.46;100260.53;5108490;27;20066;-74
2023/02/28 07:40:11;;;;;;;44.13;25.92;;;;;;;8.65;87.64;100249.66;5107216;28;20039;-72
2023/02/28 07:42:37;;;;;;;35.83;19.45;;;;;;;8.65;87.81;100258.03;5108748;28;20754;-72
2023/02/28 07:45:04;;;;;;;37.40;22.23;;;;;;;8.68;88.33;100257.41;5107850;28;20506;-72
2023/02/28 07:47:30;;;;;;;40.22;21.40;;;;;;;8.73;87.25;100262.06;5109980;28;20537;-71
2023/02/28 07:49:56;;;;;;;41.08;21.00;;;;;;;8.71;87.03;100256.81;5108590;28;20104;-73
2023/02/28 07:52:23;;;;;;;39.25;24.30;;;;;;;8.81;86.77;100259.44;5109619;27;20149;-74
2023/02/28 07:54:49;;;;;;;49.70;24.00;;;;;;;8.88;86.47;100259.06;5111212;27;20031;-77
2023/02/28 07:57:14;;;;;;;51.55;25.45;;;;;;;8.90;86.05;100255.94;5111434;27;20027;-73
2023/02/28 07:59:40;;;;;;;42.17;22.00;;;;;;;8.87;86.38;100251.84;5109303;27;20115;-74
2023/02/28 08:02:05;;;;;;;51.05;25.33;;;;;;;8.98;86.66;100252.47;5105812;27;20169;-74
2023/02/28 08:04:35;;;;;;;45.03;24.58;;;;;;;9.06;85.52;100262.09;5112292;28;20084;-75
2023/02/28 08:07:00;;;;;;;40.58;23.10;;;;;;;9.06;85.10;100260.16;5110861;28;20023;-74
2023/02/28 08:09:26;;;;;;;40.35;22.88;;;;;;;9.11;84.47;100268.44;5109454;28;20045;-74
2023/02/28 08:11:51;;;;;;;37.30;20.08;;;;;;;8.98;85.47;100258.06;5108795;28;20058;-74
2023/02/28 08:14:17;;;;;;;46.38;22.95;;;;;;;8.96;85.19;100268.69;5111922;27;20028;-74
2023/02/28 08:16:43;;;;;;;41.08;22.55;;;;;;;9.01;84.72;100279.75;5108966;28;20122;-74
2023/02/28 08:19:08;;;;;;;41.92;22.40;;;;;;;9.04;85.19;100281.13;5108742;27;20150;-74
2023/02/28 08:21:34;;;;;;;39.20;21.73;;;;;;;9.15;85.24;100290.13;5108976;28;20031;-74
2023/02/28 08:24:00;;;;;;;43.83;23.58;;;;;;;9.16;84.56;100283.41;5105450;28;20028;-74
2023/02/28 08:26:26;;;;;;;41.83;22.38;;;;;;;9.22;84.50;100285.00;5108606;28;20019;-74
2023/02/28 08:28:51;;;;;;;39.22;21.60;;;;;;;9.11;84.27;100282.38;5107901;28;20027;-74
2023/02/28 08:31:18;;;;;;;39.55;22.90;;;;;;;9.07;84.01;100284.13;5110575;28;20019;-74
2023/02/28 08:33:44;;;;;;;51.42;25.05;;;;;;;8.81;85.58;100278.13;5109253;28;20024;-74
2023/02/28 08:36:10;;;;;;;50.42;24.58;;;;;;;8.82;86.10;100266.69;5110207;28;20027;-74
2023/02/28 08:38:37;;;;;;;52.30;25.25;;;;;;;8.90;85.52;100272.69;5109420;28;20084;-73
2023/02/28 08:41:07;;;;;;;46.75;24.85;;;;;;;9.10;85.31;100274.31;5105987;28;20065;-73
2023/02/28 08:43:33;;;;;;;46.95;25.35;;;;;;;9.07;84.46;100278.56;5108892;28;20115;-74
2023/02/28 08:45:59;;;;;;;45.80;24.77;;;;;;;9.01;84.34;100278.94;5110951;28;20405;-74
2023/02/28 08:48:27;;;;;;;43.67;22.55;;;;;;;8.97;85.26;100289.88;5111652;28;20054;-74
2023/02/28 08:51:00;;;;;;;46.38;23.10;;;;;;;8.96;85.44;100283.47;5111433;28;20038;-74
2023/02/28 08:53:26;;;;;;;46.40;24.45;;;;;;;9.00;85.01;100292.06;5103992;28;20028;-74
2023/02/28 08:56:05;;;;;;;52.45;25.00;;;;;;;9.02;85.07;100281.41;5090097;28;20175;-74
2023/02/28 08:58:31;;;;;;;52.97;26.83;;;;;;;9.05;85.14;100275.25;5091447;28;20063;-74
2023/02/28 09:00:56;;;;;;;42.17;22.83;;;;;;;9.10;84.39;100277.94;5091143;28;20062;-74
2023/02/28 09:03:23;;;;;;;49.90;24.05;;;;;;;8.98;85.20;100278.41;5102870;28;20497;-74
2023/02/28 09:05:56;;;;;;;47.38;22.00;;;;;;;8.95;84.78;100279.00;5111484;28;20097;-73
2023/02/28 09:08:24;;;;;;;50.63;23.35;;;;;;;9.13;84.16;100282.09;5108623;28;20318;-74
2023/02/28 09:10:49;;;;;;;63.40;24.48;;;;;;;9.09;84.54;100276.28;5110756;28;20108;-74
2023/02/28 09:13:18;;;;;;;49.25;23.48;;;;;;;9.23;84.74;100278.28;5111389;28;20032;-74
2023/02/28 09:15:44;;;;;;;47.67;25.15;;;;;;;9.37;84.25;100270.75;5111210;28;20084;-74
2023/02/28 09:18:10;;;;;;;48.15;25.33;;;;;;;9.48;84.11;100278.94;5108719;28;20035;-74
2023/02/28 09:20:40;;;;;;;45.10;23.95;;;;;;;9.68;81.20;100278.56;5111183;28;20383;-76
2023/02/28 09:23:07;;;;;;;48.57;24.10;;;;;;;9.53;82.25;100262.09;5107831;28;20031;-72
2023/02/28 09:25:33;;;;;;;46.08;23.20;;;;;;;9.50;82.27;100271.09;5111340;28;20497;-75
2023/02/28 09:27:58;;;;;;;52.22;25.58;;;;;;;9.49;81.77;100277.81;5100882;28;20040;-72
2023/02/28 09:30:24;;;;;;;48.20;26.00;;;;;;;9.39;83.40;100264.88;5107521;28;20085;-72
2023/02/28 09:32:53;;;;;;;48.33;22.75;;;;;;;9.34;83.07;100253.78;5109235;28;20414;-72
2023/02/28 09:35:23;;;;;;;47.28;25.05;;;;;;;9.47;82.86;100257.75;5105942;28;20024;-72
2023/02/28 09:37:51;;;;;;;54.63;23.98;;;;;;;9.43;81.96;100257.53;5105712;28;20110;-72
2023/02/28 09:40:19;;;;;;;50.00;25.05;;;;;;;9.52;82.53;100254.84;5106425;28;20109;-73
2023/02/28 09:42:50;;;;;;;49.60;25.15;;;;;;;9.61;81.75;100247.41;5110371;28;20035;-81
2023/02/28 09:45:24;;;;;;;65.47;24.20;;;;;;;9.66;81.97;100244.53;5106081;28;20032;-73
2023/02/28 09:47:53;;;;;;;44.78;24.85;;;;;;;9.62;82.04;100248.25;5109453;28;20516;-74
2023/02/28 09:50:29;;;;;;;56.10;25.43;;;;;;;9.53;82.74;100250.91;5110503;27;20061;-74
2023/02/28 09:52:55;;;;;;;51.08;24.92;;;;;;;9.78;82.55;100251.56;5110465;28;20037;-72
2023/02/28 09:55:20;;;;;;;47.63;25.65;;;;;;;9.66;82.26;100255.72;5110323;28;20484;-72
2023/02/28 09:57:46;;;;;;;41.03;25.08;;;;;;;9.68;81.62;100250.63;5106648;28;20027;-72
2023/02/28 10:00:19;;;;;;;42.97;24.20;;;;;;;9.53;82.20;100256.50;5105546;27;20128;-71
2023/02/28 10:03:02;;;;;;;51.80;26.17;;;;;;;9.57;82.51;100246.38;5106284;28;20035;-73
2023/02/28 10:05:41;;;;;;;55.10;29.08;;;;;;;9.27;83.47;100238.28;5107490;28;20039;-72
2023/02/28 10:08:31;;;;;;;60.92;29.75;;;;;;;9.39;83.01;100234.16;5110386;28;20559;-71
2023/02/28 10:11:00;;;;;;;53.45;29.50;;;;;;;9.36;83.92;100241.19;5109296;28;20070;-73
2023/02/28 10:13:45;;;;;;;60.80;30.05;;;;;;;9.39;83.43;100232.19;5107972;27;20043;-73
2023/02/28 10:16:16;;;;;;;47.42;26.73;;;;;;;9.31;83.91;100232.91;5106428;28;20053;-73
2023/02/28 10:18:54;;;;;;;55.05;27.25;;;;;;;9.50;82.66;100245.94;5109105;28;20035;-73
2023/02/28 10:21:43;;;;;;;50.72;27.65;;;;;;;9.39;82.62;100246.16;5108063;28;20042;-71
2023/02/28 10:24:21;;;;;;;50.70;27.38;;;;;;;9.33;83.15;100240.97;5107981;28;20028;-72
2023/02/28 10:26:48;;;;;;;49.45;25.98;;;;;;;9.19;82.92;100240.97;5108392;27;20036;-73
2023/02/28 10:29:14;;;;;;;43.85;25.30;;;;;;;9.12;84.51;100238.56;5107199;28;20027;-71
2023/02/28 10:31:40;;;;;;;50.17;25.38;;;;;;;9.22;83.90;100237.53;5107749;28;20051;-73
2023/02/28 10:34:06;;;;;;;53.20;26.83;;;;;;;9.21;83.42;100238.69;5106793;28;20033;-72
2023/02/28 10:36:32;;;;;;;49.85;25.15;;;;;;;9.46;82.25;100240.16;5105862;27;20039;-74
2023/02/28 10:38:59;;;;;;;56.22;25.15;;;;;;;9.52;82.14;100226.91;5110005;28;20131;-74
2023/02/28 10:41:34;;;;;;;54.20;26.95;;;;;;;9.37;81.64;100228.88;5110445;28;20028;-74
2023/02/28 10:44:23;;;;;;;43.45;22.63;;;;;;;9.25;83.07;100218.22;5096471;28;20039;-75
2023/02/28 10:46:50;;;;;;;46.88;24.60;;;;;;;9.31;82.78;100216.16;5089620;28;20028;-75
2023/02/28 10:49:29;;;;;;;46.72;26.35;;;;;;;9.48;81.64;100220.31;5092744;28;20028;-74
2023/02/28 10:52:00;;;;;;;54.95;26.48;;;;;;;9.32;82.81;100220.59;5109189;28;20397;-74
2023/02/28 10:54:35;;;;;;;53.72;27.88;;;;;;;9.17;83.62;100224.50;5107089;28;20034;-72
2023/02/28 10:57:14;;;;;;;48.22;25.17;;;;;;;9.27;82.62;100215.09;5105643;28;20031;-73
2023/02/28 10:59:40;;;;;;;51.70;27.03;;;;;;;9.19;83.07;100210.25;5100224;28;20035;-75
2023/02/28 11:02:31;;;;;;;58.53;30.88;;;;;;;9.27;83.45;100213.16;5108215;27;20456;-71
2023/02/28 11:04:56;;;;;;;49.15;28.33;;;;;;;9.29;83.60;100212.84;5121821;27;20471;-73
2023/02/28 11:07:25;;;;;;;49.17;27.25;;;;;;;9.30;83.79;100206.13;5105796;28;20102;-72
2023/02/28 11:09:55;;;;;;;53.17;26.88;;;;;;;9.38;82.33;100205.41;5108109;28;20032;-71
2023/02/28 11:12:29;;;;;;;50.80;27.20;;;;;;;9.31;83.14;100205.00;5107639;28;20024;-70
2023/02/28 11:15:01;;;;;;;52.38;29.13;;;;;;;9.31;84.20;100196.63;5107008;28;20027;-73
2023/02/28 11:17:30;;;;;;;57.70;30.63;;;;;;;9.22;84.31;100193.69;5103433;28;20043;-73
2023/02/28 11:20:06;;;;;;;50.67;29.13;;;;;;;9.17;85.06;100202.19;5103782;28;20081;-74
2023/02/28 11:22:37;;;;;;;54.53;29.98;;;;;;;9.00;86.25;100197.19;5107164;28;20051;-73
2023/02/28 11:25:10;;;;;;;59.65;28.17;;;;;;;8.87;87.32;100198.81;5105255;28;20028;-73
2023/02/28 11:27:50;;;;;;;53.90;31.92;;;;;;;9.06;86.46;100204.34;5105795;28;20103;-73
2023/02/28 11:30:37;;;;;;;60.30;29.92;;;;;;;9.33;85.70;100197.13;5110337;28;20077;-73
2023/02/28 11:33:44;;;;;;;60.45;30.50;;;;;;;9.35;85.59;100199.59;5109299;28;20577;-73